createdAt,value
2022-09-07T00:00:18.353Z,11.18
2022-09-07T00:03:19.473Z,11.15
2022-09-07T00:06:25.350Z,7.40
2022-09-07T00:09:26.415Z,8.80
2022-09-07T00:12:27.409Z,10.68
2022-09-07T00:15:28.462Z,8.77
2022-09-07T00:18:29.567Z,9.82
2022-09-07T00:21:31.410Z,9.60
2022-09-07T00:24:32.439Z,9.68
2022-09-07T00:27:33.408Z,9.93
2022-09-07T00:30:27.439Z,6.38
2022-09-07T00:33:28.387Z,8.75
2022-09-07T00:36:30.388Z,11.57
2022-09-07T00:39:32.478Z,7.32
2022-09-07T00:42:34.394Z,7.13
2022-09-07T00:45:35.423Z,15.25
2022-09-07T00:48:43.475Z,4.63
2022-09-07T00:51:53.374Z,15.57
2022-09-07T00:54:59.385Z,8.20
2022-09-07T00:58:04.393Z,11.75
2022-09-07T01:01:05.576Z,12.55
2022-09-07T01:04:08.443Z,9.88
2022-09-07T01:07:10.407Z,12.05
2022-09-07T01:10:12.459Z,11.35
2022-09-07T01:13:14.399Z,12.02
2022-09-07T01:16:41.395Z,9.77
2022-09-07T01:20:14.410Z,11.65
2022-09-07T01:23:37.454Z,10.57
2022-09-07T01:26:50.401Z,12.50
2022-09-07T01:30:23.393Z,11.35
2022-09-07T01:33:33.427Z,13.00
2022-09-07T01:36:52.409Z,8.05
2022-09-07T01:40:13.523Z,12.82
2022-09-07T01:43:20.463Z,12.40
2022-09-07T01:46:34.537Z,13.80
2022-09-07T01:49:40.475Z,12.05
2022-09-07T01:53:00.591Z,9.18
2022-09-07T01:56:14.471Z,11.40
2022-09-07T01:59:26.451Z,10.75
2022-09-07T02:02:32.581Z,13.68
2022-09-07T02:06:05.440Z,10.25
2022-09-07T02:09:11.493Z,12.50
2022-09-07T02:12:18.449Z,12.85
2022-09-07T02:15:27.632Z,15.90
2022-09-07T02:18:28.439Z,9.60
2022-09-07T02:21:35.589Z,12.13
2022-09-07T02:24:54.416Z,11.32
2022-09-07T02:28:07.443Z,12.73
2022-09-07T02:31:08.521Z,14.55
2022-09-07T02:34:10.443Z,14.32
2022-09-07T02:37:14.795Z,16.55
2022-09-07T02:40:15.498Z,13.25
2022-09-07T02:43:22.501Z,11.02
2022-09-07T02:46:29.603Z,12.38
2022-09-07T02:49:45.435Z,13.82
2022-09-07T02:52:58.699Z,8.45
2022-09-07T02:56:21.495Z,12.85
2022-09-07T02:59:39.452Z,9.20
2022-09-07T03:02:52.522Z,18.73
2022-09-07T03:06:00.475Z,13.73
2022-09-07T03:09:05.513Z,18.73
2022-09-07T03:12:07.627Z,12.43
2022-09-07T03:15:08.521Z,15.63
2022-09-07T03:18:09.532Z,11.25
2022-09-07T03:21:10.461Z,10.35
2022-09-07T03:24:11.477Z,12.45
2022-09-07T03:27:13.476Z,9.90
2022-09-07T03:30:14.532Z,11.90
2022-09-07T03:33:15.524Z,12.13
2022-09-07T03:36:16.615Z,11.18
2022-09-07T03:39:19.470Z,16.38
2022-09-07T03:42:20.472Z,16.50
2022-09-07T03:45:22.491Z,11.48
2022-09-07T03:48:23.637Z,18.35
2022-09-07T03:51:25.485Z,15.98
2022-09-07T03:54:26.480Z,12.57
2022-09-07T03:57:35.497Z,16.90
2022-09-07T04:00:36.518Z,13.40
2022-09-07T04:03:37.548Z,13.65
2022-09-07T04:06:39.484Z,9.77
2022-09-07T04:09:40.552Z,7.88
2022-09-07T04:12:41.648Z,11.40
2022-09-07T04:15:42.503Z,9.75
2022-09-07T04:18:43.490Z,10.05
2022-09-07T04:21:46.488Z,15.60
2022-09-07T04:24:47.560Z,14.05
2022-09-07T04:27:48.544Z,18.33
2022-09-07T04:30:49.639Z,10.10
2022-09-07T04:33:43.673Z,16.20
2022-09-07T04:36:38.668Z,14.85
2022-09-07T04:39:39.605Z,17.00
2022-09-07T04:42:40.579Z,12.52
2022-09-07T04:45:41.563Z,13.55
2022-09-07T04:48:42.547Z,13.82
2022-09-07T04:51:45.520Z,10.35
2022-09-07T04:54:46.565Z,9.82
2022-09-07T04:57:47.692Z,12.05
2022-09-07T05:00:48.787Z,11.77
2022-09-07T05:03:51.687Z,17.25
2022-09-07T05:06:52.528Z,18.65
2022-09-07T05:09:53.557Z,18.52
2022-09-07T05:12:54.610Z,15.05
2022-09-07T05:15:55.607Z,15.25
2022-09-07T05:18:57.700Z,12.07
2022-09-07T05:21:58.703Z,15.45
2022-09-07T05:25:01.529Z,13.38
2022-09-07T05:28:02.609Z,21.92
2022-09-07T05:31:19.558Z,10.27
2022-09-07T05:37:28.719Z,17.55
2022-09-07T05:40:29.602Z,13.23
2022-09-07T05:43:30.561Z,17.85
2022-09-07T05:46:32.592Z,9.90
2022-09-07T05:49:33.602Z,19.02
2022-09-07T05:52:34.606Z,15.10
2022-09-07T05:55:35.553Z,11.80
2022-09-07T05:58:36.604Z,12.85
2022-09-07T06:01:37.762Z,10.95
2022-09-07T06:04:38.555Z,8.43
2022-09-07T06:07:39.754Z,10.32
2022-09-07T06:10:44.046Z,10.00
2022-09-07T06:13:45.635Z,13.13
2022-09-07T06:16:49.645Z,11.43
2022-09-07T06:19:50.574Z,14.30
2022-09-07T06:22:52.576Z,14.88
2022-09-07T06:26:01.572Z,13.23
2022-09-07T06:29:02.637Z,16.45
2022-09-07T06:35:34.745Z,16.38
2022-09-07T06:38:35.649Z,14.38
2022-09-07T06:45:09.580Z,10.88
2022-09-07T06:48:10.659Z,14.95
2022-09-07T06:51:17.579Z,16.00
2022-09-07T06:57:39.585Z,13.20
2022-09-07T07:00:40.705Z,6.72
2022-09-07T07:03:42.644Z,14.10
2022-09-07T07:07:01.600Z,16.75
2022-09-07T07:10:03.755Z,17.70
2022-09-07T07:13:04.681Z,10.88
2022-09-07T07:16:05.622Z,11.73
2022-09-07T07:19:10.602Z,9.32
2022-09-07T07:22:35.907Z,11.77
2022-09-07T07:25:33.672Z,12.38
2022-09-07T07:31:55.692Z,14.52
2022-09-07T07:34:56.719Z,15.70
2022-09-07T07:44:39.651Z,14.43
2022-09-07T07:47:40.592Z,14.27
2022-09-07T07:50:41.614Z,12.57
2022-09-07T07:53:43.666Z,11.82
2022-09-07T07:56:44.663Z,13.98
2022-09-07T07:59:45.767Z,12.63
2022-09-07T08:02:46.756Z,14.88
2022-09-07T08:05:50.631Z,12.63
2022-09-07T08:08:51.712Z,11.57
2022-09-07T08:11:52.692Z,14.40
2022-09-07T08:14:54.686Z,14.07
2022-09-07T08:17:55.772Z,8.98
2022-09-07T08:20:57.788Z,14.30
2022-09-07T08:23:58.872Z,9.40
2022-09-07T08:27:00.691Z,11.13
2022-09-07T08:30:01.689Z,10.43
2022-09-07T08:33:02.692Z,14.02
2022-09-07T08:36:15.674Z,12.63
2022-09-07T08:39:09.628Z,14.55
2022-09-07T08:42:53.645Z,18.85
2022-09-07T08:46:03.737Z,12.85
2022-09-07T08:49:04.657Z,8.02
2022-09-07T08:52:18.688Z,10.85
2022-09-07T08:56:00.650Z,13.48
2022-09-07T08:59:02.642Z,12.23
2022-09-07T09:05:47.779Z,7.05
2022-09-07T09:09:00.717Z,8.65
2022-09-07T09:12:22.663Z,11.52
2022-09-07T09:15:29.838Z,10.75
2022-09-07T09:18:48.736Z,10.88
2022-09-07T09:21:49.670Z,16.73
2022-09-07T09:24:53.820Z,12.10
2022-09-07T09:27:54.814Z,14.73
2022-09-07T09:30:55.908Z,8.77
2022-09-07T09:33:56.754Z,14.70
2022-09-07T09:37:00.689Z,11.75
2022-09-07T09:40:12.743Z,19.58
2022-09-07T09:43:41.694Z,11.10
2022-09-07T09:47:29.545Z,15.63
2022-09-07T09:50:12.092Z,11.20
2022-09-07T09:53:14.673Z,14.73
2022-09-07T09:56:17.697Z,15.20
2022-09-07T10:06:49.737Z,9.15
2022-09-07T10:09:53.715Z,12.00
2022-09-07T10:12:55.864Z,10.55
2022-09-07T10:15:56.761Z,9.57
2022-09-07T10:19:12.761Z,11.30
2022-09-07T10:22:32.124Z,13.38
2022-09-07T10:25:53.863Z,9.27
2022-09-07T10:29:10.373Z,8.70
2022-09-07T10:32:30.917Z,7.35
2022-09-07T10:35:43.765Z,10.13
2022-09-07T10:38:51.711Z,12.30
2022-09-07T10:45:00.709Z,11.25
2022-09-07T10:48:19.903Z,9.90
2022-09-07T10:51:45.761Z,17.90
2022-09-07T10:55:09.730Z,6.25
2022-09-07T10:59:01.529Z,11.25
2022-09-07T11:01:59.821Z,8.52
2022-09-07T11:05:03.753Z,8.38
2022-09-07T11:08:10.786Z,11.65
2022-09-07T11:15:03.803Z,9.00
2022-09-07T11:18:12.813Z,9.15
2022-09-07T11:21:56.085Z,9.18
2022-09-07T11:24:42.739Z,10.10
2022-09-07T11:28:02.790Z,11.60
2022-09-07T11:31:03.780Z,7.28
2022-09-07T11:34:30.782Z,6.57
2022-09-07T11:37:57.888Z,9.20
2022-09-07T11:41:25.753Z,5.43
2022-09-07T11:44:34.766Z,6.25
2022-09-07T11:47:40.757Z,8.65
2022-09-07T11:50:48.851Z,6.15
2022-09-07T11:53:56.766Z,8.30
2022-09-07T11:57:03.774Z,7.10
2022-09-07T12:00:47.794Z,9.77
2022-09-07T12:04:00.852Z,8.93
2022-09-07T12:07:22.770Z,6.97
2022-09-07T12:10:57.942Z,12.05
2022-09-07T12:14:10.949Z,11.60
2022-09-07T12:17:34.990Z,9.80
2022-09-07T12:20:41.789Z,4.65
2022-09-07T12:23:46.800Z,9.77
2022-09-07T12:26:47.875Z,8.50
2022-09-07T12:29:49.986Z,6.15
2022-09-07T12:33:02.909Z,6.85
2022-09-07T12:36:05.796Z,7.95
2022-09-07T12:39:18.817Z,11.63
2022-09-07T12:42:37.444Z,7.10
2022-09-07T12:45:41.820Z,8.32
2022-09-07T12:49:06.814Z,6.60
2022-09-07T12:52:31.551Z,8.93
2022-09-07T12:56:21.825Z,4.60
2022-09-07T13:00:06.830Z,3.55
2022-09-07T13:07:05.874Z,5.90
2022-09-07T13:10:11.914Z,7.85
2022-09-07T13:20:12.841Z,12.95
2022-09-07T13:23:25.906Z,4.45
2022-09-07T13:27:05.887Z,8.35
2022-09-07T13:30:16.633Z,5.97
2022-09-07T13:33:42.946Z,5.32
2022-09-07T13:37:01.872Z,4.93
2022-09-07T13:40:05.934Z,5.43
2022-09-07T13:43:08.886Z,4.93
2022-09-07T13:46:18.000Z,7.18
2022-09-07T13:49:41.943Z,8.55
2022-09-07T13:53:34.057Z,7.53
2022-09-07T13:57:04.926Z,4.00
2022-09-07T14:00:05.913Z,5.15
2022-09-07T14:03:07.917Z,7.93
2022-09-07T14:06:47.885Z,3.80
2022-09-07T14:09:48.922Z,8.52
2022-09-07T14:12:57.918Z,7.40
2022-09-07T14:16:01.890Z,3.95
2022-09-07T14:19:02.931Z,5.57
2022-09-07T14:22:15.063Z,4.38
2022-09-07T14:25:19.922Z,2.53
2022-09-07T14:28:50.033Z,4.15
2022-09-07T14:31:50.934Z,5.85
2022-09-07T14:34:51.945Z,3.22
2022-09-07T14:37:53.920Z,6.55
2022-09-07T14:40:54.910Z,3.80
2022-09-07T14:44:07.907Z,5.80
2022-09-07T14:47:09.944Z,3.58
2022-09-07T14:50:15.449Z,6.03
2022-09-07T14:53:37.135Z,7.78
2022-09-07T14:56:43.988Z,3.55
2022-09-07T14:59:59.910Z,3.13
2022-09-07T15:03:00.949Z,5.43
2022-09-07T15:06:02.905Z,6.97
2022-09-07T15:09:04.015Z,6.07
2022-09-07T15:12:17.694Z,5.38
2022-09-07T15:15:53.100Z,3.63
2022-09-07T15:19:14.931Z,6.10
2022-09-07T15:22:23.997Z,4.25
2022-09-07T15:25:24.990Z,5.20
2022-09-07T15:32:04.047Z,3.25
2022-09-07T15:38:59.460Z,3.40
2022-09-07T15:41:28.090Z,2.97
2022-09-07T15:44:29.918Z,4.70
2022-09-07T15:50:53.967Z,5.40
2022-09-07T16:00:37.318Z,4.20
2022-09-07T16:03:38.205Z,4.00
2022-09-07T16:06:40.001Z,5.20
2022-09-07T16:09:41.939Z,2.30
2022-09-07T16:16:04.947Z,5.00
2022-09-07T16:19:07.346Z,2.42
2022-09-07T16:22:08.287Z,4.72
2022-09-07T16:25:09.108Z,6.25
2022-09-07T16:28:10.009Z,4.43
2022-09-07T16:31:11.029Z,6.97
2022-09-07T16:34:11.961Z,4.63
2022-09-07T16:37:12.998Z,6.55
2022-09-07T16:40:14.054Z,4.53
2022-09-07T16:43:15.008Z,4.60
2022-09-07T16:46:18.012Z,6.75
2022-09-07T16:49:19.532Z,6.45
2022-09-07T16:52:20.020Z,6.63
2022-09-07T16:55:20.971Z,5.72
2022-09-07T16:58:37.920Z,5.75
2022-09-07T17:01:48.045Z,8.32
2022-09-07T17:04:49.035Z,5.20
2022-09-07T17:07:49.977Z,6.10
2022-09-07T17:10:51.053Z,4.80
2022-09-07T17:13:53.990Z,6.53
2022-09-07T17:16:55.088Z,5.82
2022-09-07T17:19:56.011Z,5.22
2022-09-07T17:22:57.034Z,4.18
2022-09-07T17:25:58.087Z,3.00
2022-09-07T17:29:03.063Z,5.20
2022-09-07T17:35:26.042Z,3.50
2022-09-07T17:41:51.122Z,4.65
2022-09-07T17:44:54.048Z,2.80
2022-09-07T17:47:57.003Z,4.63
2022-09-07T17:50:59.156Z,3.55
2022-09-07T17:54:00.089Z,5.80
2022-09-07T17:57:01.060Z,3.42
2022-09-07T18:00:12.116Z,3.67
2022-09-07T18:03:13.049Z,4.63
2022-09-07T18:06:15.012Z,4.53
2022-09-07T18:09:20.216Z,2.75
2022-09-07T18:12:21.074Z,8.18
2022-09-07T18:15:22.239Z,4.82
2022-09-07T18:18:27.031Z,5.32
2022-09-07T18:21:32.032Z,8.40
2022-09-07T18:24:38.071Z,7.88
2022-09-07T18:27:39.506Z,4.97
2022-09-07T18:30:41.098Z,4.55
2022-09-07T18:33:42.022Z,7.55
2022-09-07T18:36:44.020Z,7.93
2022-09-07T18:39:45.062Z,3.53
2022-09-07T18:42:46.089Z,7.03
2022-09-07T18:45:47.242Z,7.13
2022-09-07T18:48:49.108Z,4.82
2022-09-07T18:55:11.098Z,7.72
2022-09-07T18:58:12.062Z,6.82
2022-09-07T19:01:22.062Z,10.07
2022-09-07T19:04:23.668Z,5.22
2022-09-07T19:07:29.382Z,5.70
2022-09-07T19:10:30.146Z,5.13
2022-09-07T19:13:31.130Z,4.72
2022-09-07T19:16:33.162Z,7.70
2022-09-07T19:19:34.099Z,8.20
2022-09-07T19:22:35.138Z,9.27
2022-09-07T19:25:36.086Z,8.35
2022-09-07T19:28:37.223Z,11.05
2022-09-07T19:31:39.288Z,13.07
2022-09-07T19:34:40.291Z,10.68
2022-09-07T19:37:41.107Z,13.07
2022-09-07T19:40:42.085Z,11.05
2022-09-07T19:43:47.123Z,11.68
2022-09-07T19:46:49.136Z,9.10
2022-09-07T19:49:50.110Z,9.00
2022-09-07T19:52:51.216Z,6.82
2022-09-07T19:55:52.129Z,12.98
2022-09-07T19:58:56.126Z,11.15
2022-09-07T20:01:59.111Z,8.95
2022-09-07T20:05:00.218Z,10.23
2022-09-07T20:08:01.107Z,8.52
2022-09-07T20:11:02.095Z,10.43
2022-09-07T20:14:03.170Z,10.68
2022-09-07T20:17:04.101Z,9.25
2022-09-07T20:20:05.158Z,10.70
2022-09-07T20:23:06.107Z,8.73
2022-09-07T20:26:11.112Z,9.52
2022-09-07T20:29:29.097Z,9.15
2022-09-07T20:32:30.119Z,6.63
2022-09-07T20:35:31.116Z,8.70
2022-09-07T20:38:34.142Z,7.43
2022-09-07T20:41:44.255Z,5.82
2022-09-07T20:44:45.256Z,8.20
2022-09-07T20:47:46.120Z,9.65
2022-09-07T20:50:47.158Z,3.88
2022-09-07T20:53:48.116Z,7.97
2022-09-07T20:56:49.182Z,6.70
2022-09-07T20:59:50.159Z,8.05
2022-09-07T21:02:51.121Z,8.50
2022-09-07T21:05:52.186Z,5.55
2022-09-07T21:08:55.165Z,8.02
2022-09-07T21:11:57.114Z,11.90
2022-09-07T21:14:58.287Z,5.43
2022-09-07T21:17:59.150Z,8.05
2022-09-07T21:21:24.441Z,8.35
2022-09-07T21:24:36.179Z,11.18
2022-09-07T21:27:44.160Z,6.13
2022-09-07T21:30:45.169Z,9.10
2022-09-07T21:33:48.150Z,9.05
2022-09-07T21:36:49.144Z,9.43
2022-09-07T21:39:50.227Z,6.95
2022-09-07T21:42:52.292Z,5.72
2022-09-07T21:45:53.307Z,8.07
2022-09-07T21:48:54.188Z,8.82
2022-09-07T21:51:55.332Z,10.30
2022-09-07T21:54:56.301Z,9.15
2022-09-07T21:57:57.170Z,10.30
2022-09-07T22:00:58.275Z,8.05
2022-09-07T22:04:01.176Z,10.23
2022-09-07T22:07:02.225Z,6.90
2022-09-07T22:10:03.516Z,10.75
2022-09-07T22:12:57.187Z,9.85
2022-09-07T22:15:58.311Z,8.38
2022-09-07T22:19:00.276Z,12.57
2022-09-07T22:21:54.203Z,13.00
2022-09-07T22:24:55.216Z,13.10
2022-09-07T22:27:56.166Z,5.95
2022-09-07T22:30:57.227Z,9.77
2022-09-07T22:33:59.253Z,12.90
2022-09-07T22:37:00.260Z,8.35
2022-09-07T22:40:01.350Z,9.07
2022-09-07T22:43:02.183Z,6.40
2022-09-07T22:46:03.347Z,12.43
2022-09-07T22:49:06.176Z,14.18
2022-09-07T22:52:07.228Z,9.70
2022-09-07T22:55:08.315Z,10.98
2022-09-07T22:58:09.338Z,9.43
2022-09-07T23:01:13.327Z,10.07
2022-09-07T23:04:14.385Z,10.52
2022-09-07T23:07:15.337Z,10.27
2022-09-07T23:10:16.238Z,9.95
2022-09-07T23:13:17.195Z,6.25
2022-09-07T23:16:19.364Z,10.30
2022-09-07T23:19:20.246Z,11.20
2022-09-07T23:22:22.256Z,9.00
2022-09-07T23:25:23.243Z,8.93
2022-09-07T23:28:25.251Z,16.50
2022-09-07T23:31:26.289Z,12.15
2022-09-07T23:34:27.302Z,11.60
2022-09-07T23:37:28.433Z,10.38
2022-09-07T23:40:29.268Z,8.43
2022-09-07T23:43:30.287Z,9.40
2022-09-07T23:46:31.290Z,12.07
2022-09-07T23:49:32.272Z,10.65
2022-09-07T23:52:33.202Z,16.27
2022-09-07T23:55:34.268Z,9.43
2022-09-07T23:58:36.587Z,13.15
